Search flights

Cincinnati/Northern Ky Intl Airport, Cincinnati (KCVG)

Airport Weather & NOTAM's

METAR for:KCVG (Cincinnati Intl, KY, US)
Text:KCVG 142352Z 34011KT 10SM FEW050 FEW075 29/17 A2994 RMK AO2 SLP126 T02890167 10311 20272 53004
Conditions at:2352 UTC 14 Jun 2024
Temperature: 28.9°C ( 84°F)
Dewpoint: 16.7°C ( 62°F) [RH = 48%]
Pressure (altimeter):29.94 inches Hg (1014.0 mb) [Sea level pressure: 1012.6 mb]
Winds:from the NNW (340 degrees) at 13 MPH (11 knots; 5.7 m/s)
Visibility:10 or more sm (16+ km)
Ceiling:at least 12,000 feet AGL
Clouds:few clouds at 5000 feet AGL, few clouds at 7500 feet AGL
TAF for:KCVG (Cincinnati Intl, KY, US) issued at 2336 UTC 14 Jun 2024
Text:KCVG 142336Z 1500/1606 34008KT P6SM SKC
Forecast period:0000 to 0400 UTC 15 June 2024
Forecast type:FROM: standard forecast or significant change
Winds:from the NNW (340 degrees) at 9 MPH (8 knots; 4.1 m/s)
Visibility:6 or more sm (10+ km)
Ceiling:at least 12,000 feet AGL
Clouds:clear skies
Text:FM150400 05007KT P6SM SKC
Forecast period:0400 to 1400 UTC 15 June 2024
Forecast type:FROM: standard forecast or significant change
Winds:from the NE (50 degrees) at 8 MPH (7 knots; 3.6 m/s)
Visibility:6 or more sm (10+ km)
Ceiling:at least 12,000 feet AGL
Clouds:clear skies
Text:FM151400 08009KT P6SM SKC
Forecast period:1400 UTC 15 June 2024 to 0600 UTC 16 June 2024
Forecast type:FROM: standard forecast or significant change
Winds:from the E (80 degrees) at 10 MPH (9 knots; 4.6 m/s)
Visibility:6 or more sm (10+ km)
Ceiling:at least 12,000 feet AGL
Clouds:clear skies

Live Departures & Arrivals

There are currently no arrivals or departures for this airport.

Departures History (last 12 months)

Flight No. Dest. Aircraft Date
AAY361 KVPS Fenix A320... 2024-06-06 18:30:56
AAY7008 MDPC Fenix A320... 2024-05-30 13:07:25
AAY2781 KSAV Airbus A31... 2024-05-24 15:48:36
AAY368 KPIE Fenix A320... 2024-05-06 12:08:49
AAY409 KJAX A320 2024-05-03 11:45:00
AAY366 KPIE Fly The Ma... 2024-04-15 10:12:12
AAY418 KMYR A320 2024-04-12 03:45:00
AAY421 KMYR Fenix A320... 2024-04-11 02:51:52
AAY3140 KAUS Fenix A320... 2024-04-05 11:40:46
AAY4915 KMDW Fenix A320... 2024-03-31 02:09:22
AAY382 KFLL Fenix A320... 2024-03-31 13:16:51
AAY366 KSRQ Fly The Ma... 2024-03-30 14:40:52
AAY1989 KMYR Fenix A320... 2024-03-28 12:51:03
AAY407 KSRQ FWB Allegi... 2024-03-27 16:43:11
AAY372 KEYW Fenix A320... 2024-03-26 20:04:36
AAY7008 MDPC PMDG 737-8... 2024-03-14 10:53:28
AAY389 KMYR McDonnell... 2024-03-06 19:00:16
AAY382 KPIE FenixA320_... 2024-02-23 16:41:32
AAY1989 KMYR FenixA320_... 2024-02-22 19:32:17
AAY397 KEYW Airbus A32... 2024-02-21 22:32:09
AAY382 KPIE FenixA320_... 2024-02-16 09:53:41
AAY382 KPIE FenixA320_... 2024-02-11 22:57:23
AAY382 KPIE FWB Allegi... 2024-02-08 23:46:49
AAY429 KSFB FenixA320_... 2024-02-07 23:29:43
AAY382 KPIE Airbus A31... 2024-02-06 21:57:12
AAY382 KPIE PMDG 737-8... 2024-02-05 15:59:39
AAY408 KPIE FenixA320_... 2024-02-03 03:28:16
AAY721 KIWA A320 2024-01-27 14:47:00
AAY401 KMYR Airbus A32... 2024-01-24 02:45:46
AAY9204 KLCK FWB Allegi... 2024-01-23 17:45:53
AAY404 KPGD A320 2024-01-19 03:13:00
AAY9999 KPBG Fly The Ma... 2024-01-08 12:19:39
AAY1157 KSAV FWB Allegi... 2024-01-05 19:02:36
AAY362 KEWR A320 2024-01-04 05:35:00
AAY423 KEYW Airbus A32... 2023-12-24 14:53:34
AAY416 KLAX FenixA320_... 2023-12-13 22:03:19
AAY361 KSFB Fly The Ma... 2023-12-06 20:23:01
AAY9202 KGRR Airbus A32... 2023-12-05 05:24:42
AAY414 KMSY Airbus A32... 2023-11-26 12:41:13
AAY366 KMYR FenixA320_... 2023-11-26 13:15:21
AAY2049 KLAS ToLissA319... 2023-11-24 18:04:09
AAY426 KSFB Airbus A32... 2023-11-23 17:58:44
AAY394 KPIE FenixA320_... 2023-11-23 20:25:08
AAY366 KMYR Airbus A31... 2023-11-21 14:27:57
AAY364 KEWR Fly The Ma... 2023-11-21 23:46:47
AAY1995 KJAX FenixA320_... 2023-11-19 01:37:15
AAY364 KEWR FenixA320_... 2023-11-18 17:15:58
AAY366 KMYR FenixA320_... 2023-11-17 23:45:17
AAY421 KCHS FenixA320_... 2023-11-16 12:14:21
AAY1985 KPGD FenixA320_... 2023-11-15 21:50:41
AAY366 KMYR FenixA320_... 2023-11-14 23:19:34
AAY366 KMYR Fly The Ma... 2023-11-11 22:36:05
AAY9311 KMSY ToLissA320... 2023-11-10 16:20:12
AAY1055 MMUN FenixA320_... 2023-10-22 13:26:39
AAY4750 KTOL FWB Allegi... 2023-09-19 19:02:13
AAY2034 KSFB FenixA320_... 2023-08-12 03:52:37
AAY4750 KTOL FenixA320_... 2023-08-10 19:34:13
AAY416 KDEN Airbus A33... 2023-07-28 22:09:37
AAY2049 KLAS Fly The Ma... 2023-07-22 21:34:49
AAY378 KLAS Airbus A32... 2023-07-20 13:24:03
AAY4750 KTOL 320_JARDes... 2023-07-16 15:37:18
AAY387 KVPS Airbus A32... 2023-06-24 15:45:02

Arrivals History (last 12 months)

Flight No. Origin Aircraft Date
AAY372 KVPS Fenix A320... 2024-06-12 00:17:56
AAY7009 MDPC Fenix A320... 2024-06-06 15:10:27
AAY422 KSFB Fenix A320... 2024-05-30 12:48:22
AAY371 KSFB Fly The Ma... 2024-04-14 20:46:22
AAY423 KMYR Fenix A320... 2024-04-11 18:40:20
AAY388 KIWA Fenix A320... 2024-04-05 17:24:12
AAY366 KPIE Fenix A320... 2024-04-04 19:17:00
AAY387 KJAX Fenix A320... 2024-03-31 04:06:55
AAY519 KFLL Fenix A320... 2024-03-30 17:13:05
AAY369 KLAS Fenix A320... 2024-03-28 12:25:54
AAY1990 KMYR FWB Allegi... 2024-03-27 14:35:29
AAY4782 KSDF Fenix A320... 2024-03-26 23:37:10
AAY423 KSAV Fenix A320... 2024-03-24 15:32:10
AAY422 KJAX Fenix A320... 2024-03-11 21:13:00
AAY1443 KVPS PMDG 737-8... 2024-03-08 14:36:52
AAY362 KEWR PMDG 737-8... 2024-02-18 00:00:23
AAY362 KEWR FenixA320_... 2024-02-16 09:38:42
AAY362 KEWR FenixA320_... 2024-02-10 22:48:09
AAY362 KEWR Airbus A31... 2024-02-06 21:33:00
AAY362 KEWR FWB Allegi... 2024-02-06 03:43:40
AAY399 KMYR FenixA320_... 2024-02-05 20:29:53
AAY362 KEWR PMDG 737-8... 2024-02-05 15:55:23
AAY369 KLAS Airbus A32... 2024-02-03 03:01:23
AAY418 KFLL A320 2024-01-27 18:38:00
AAY399 KMYR Airbus A32... 2024-01-26 21:29:08
AAY1998 KLAS Fly The Ma... 2024-01-24 01:06:13
AAY362 KEWR FWB Allegi... 2024-01-22 20:40:58
AAY1582 KAUS PMDG 737-8... 2024-01-15 06:21:18
AAY382 KJAX Airbus A31... 2023-12-27 03:30:42
AAY374 KFLL PMDG 737-8... 2023-12-26 17:57:42
AAY4764 KPIT Airbus A31... 2023-12-14 17:24:52
AAY1988 KMSY Airbus A32... 2023-12-12 15:20:16
AAY378 KPGD Fly The Ma... 2023-12-06 19:47:04
AAY4764 KPIT FenixA320_... 2023-12-05 22:58:24
AAY381 KSRQ FenixA320_... 2023-11-23 17:32:21
AAY383 KJAX FenixA320_... 2023-11-21 00:50:09
AAY620 KSFB Fly The Ma... 2023-11-18 00:50:22
AAY374 KIWA Airbus A32... 2023-11-18 17:06:09
AAY371 KEWR FenixA320_... 2023-11-18 23:09:31
AAY4764 KPIT FenixA320_... 2023-11-17 02:01:12
AAY362 KPIE FenixA320_... 2023-11-13 05:36:23
AAY4764 KPIT Fly The Ma... 2023-11-12 20:03:14
AAY372 KFLL ToLissA319... 2023-11-09 20:10:04
AAY391 KSFB Airbus A32... 2023-11-03 06:04:03
AAY388 KEYW ToLissA319... 2023-10-30 17:19:29
AAY368 KMYR FenixA320_... 2023-10-21 13:57:11
{}G-FENX KSAV FenixA320_... 2023-09-21 03:54:11
AAY397 KVPS Fly The Ma... 2023-09-17 04:24:06
AAY381 KFLL FWB Allegi... 2023-08-17 21:58:12
AAY9300 KTOL FenixA320_... 2023-08-11 16:43:44
AAY9684 CYRQ FenixA320_... 2023-08-10 19:19:07
AAY4753 KTOL FWB Allegi... 2023-07-29 17:31:41
AAY383 KJAX Airbus A32... 2023-07-20 12:42:50
AAY9220 KLEX FenixA320_... 2023-07-19 04:18:39
AAY381 KSRQ FenixA320_... 2023-07-17 04:11:50

Runway Information (Airport elevation: 874ft)

Runway 09 Length 11,990ft Width 145ft Elevation 874ft Surface Concrete Heading 90
Runway 18C Length 10,977ft Width 139ft Elevation 874ft Surface Concrete Heading 180
Runway 18L Length 9,988ft Width 137ft Elevation 874ft Surface Asphalt Heading 180
Runway 18R Length 7,990ft Width 142ft Elevation 874ft Surface Concrete Heading 180
Runway 27 Length 11,990ft Width 145ft Elevation 874ft Surface Concrete Heading 270
Runway 36C Length 10,977ft Width 139ft Elevation 874ft Surface Concrete Heading 0
Runway 36L Length 7,990ft Width 142ft Elevation 874ft Surface Concrete Heading 0
Runway 36R Length 9,988ft Width 137ft Elevation 874ft Surface Asphalt Heading 0

Airport Frequencies

Type APP/DEP Frequency 119.700 Mhz
Type APP/DEP Frequency 123.875 Mhz
Type ASOS Frequency 134.375 Mhz
Type ATIS Frequency 134.375 Mhz
Type ATIS Frequency 135.300 Mhz
Type Clearance Frequency 127.175 Mhz
Type D Frequency 126.650 Mhz
Type D Frequency 128.700 Mhz
Type Ground Frequency 121.700 Mhz
Type Ground Frequency 129.475 Mhz
Type Ground Frequency 130.375 Mhz
Type Ground Frequency 130.500 Mhz
Type Ground Frequency 130.900 Mhz
Type Tower Frequency 118.300 Mhz
Type Tower Frequency 118.975 Mhz
Type Tower Frequency 133.325 Mhz
Type UC Frequency 122.950 Mhz
Type Clearance Frequency 127.175 Mhz
Type D Frequency 121.000 Mhz
Type Ground Frequency 129.475 Mhz
Type Ground Frequency 130.500 Mhz
Type Ground Frequency 130.900 Mhz
Type UC Frequency 122.950 Mhz

Airport Navaids

Type NDB Ident UR Frequency 321 Khz